Time;durP1;ratioP1;P1;durP2;ratioP2;P2;SDS_P1;SDS_P2;PMS_P1;PMS_P2;Temp;Humidity;BMP_temperature;BMP_pressure;BME280_temperature;BME280_humidity;BME280_pressure;Samples;Min_cycle;Max_cycle;Signal;HPM_P1;HPM_P2
2021/07/12 09:29:54;;;;;;;8.30;4.20;;;;;;;38.04;29.44;100593.66;4424876;22;1889121;-65
2021/07/12 09:32:25;;;;;;;9.23;4.40;;;;;;;37.88;29.58;100610.00;5068659;28;20131;-66
2021/07/12 09:35:00;;;;;;;10.45;3.78;;;;;;;37.85;29.79;100607.56;5071045;28;20037;-65
2021/07/12 09:37:30;;;;;;;7.95;4.03;;;;;;;37.79;29.78;100611.81;5070517;28;20048;-65
2021/07/12 09:39:58;;;;;;;9.35;4.68;;;;;;;37.83;30.24;100613.22;5070786;28;20060;-65
2021/07/12 11:10:23;;;;;;;8.30;4.03;;;;;;;36.17;30.36;100609.31;3616885;28;22228;-64
2021/07/12 11:12:58;;;;;;;7.57;4.20;;;;;;;36.24;30.31;100602.22;5090121;23;20043;-66
2021/07/12 11:15:30;;;;;;;10.60;4.50;;;;;;;36.38;30.37;100622.91;5064699;28;20086;-64
2021/07/12 11:18:02;;;;;;;10.80;4.20;;;;;;;36.51;30.12;100625.38;5057719;28;20041;-65
2021/07/12 11:21:01;;;;;;;9.27;5.03;;;;;;;36.63;30.01;100624.19;5051026;28;20034;-65
2021/07/12 11:23:43;;;;;;;6.50;3.78;;;;;;;36.67;30.28;100599.03;5069942;28;20828;-65
2021/07/12 11:26:52;;;;;;;10.98;4.22;;;;;;;36.83;30.42;100614.91;5068232;28;20542;-65
2021/07/12 11:29:37;;;;;;;9.52;4.47;;;;;;;37.03;30.06;100618.47;5066198;28;20485;-65
2021/07/12 11:32:18;;;;;;;6.15;4.05;;;;;;;37.13;30.05;100616.59;5066252;28;20523;-65
2021/07/12 11:34:54;;;;;;;10.27;4.57;;;;;;;37.24;29.76;100615.53;5069992;28;20226;-65
2021/07/12 11:37:25;;;;;;;7.35;4.13;;;;;;;37.21;29.53;100608.47;5069233;28;20044;-65
2021/07/12 11:39:57;;;;;;;6.43;4.25;;;;;;;37.25;29.54;100614.53;5070540;28;20504;-67
2021/07/12 11:42:27;;;;;;;7.55;3.83;;;;;;;37.44;29.31;100609.78;5068561;28;20142;-66
2021/07/12 11:44:59;;;;;;;9.98;4.18;;;;;;;37.44;29.48;100625.47;5065885;28;20044;-66
2021/07/12 11:47:29;;;;;;;8.07;4.25;;;;;;;37.50;28.99;100613.81;5069625;28;20040;-65
2021/07/12 11:50:00;;;;;;;8.25;4.30;;;;;;;37.59;29.04;100601.94;5070189;28;20115;-65
2021/07/12 11:52:30;;;;;;;6.18;3.40;;;;;;;37.69;28.71;100613.75;5069701;28;20036;-65
2021/07/12 11:55:13;;;;;;;7.85;3.90;;;;;;;37.66;28.91;100597.53;5068512;28;20047;-65
2021/07/12 11:57:43;;;;;;;11.63;3.90;;;;;;;37.89;28.14;100603.47;5050258;28;20045;-66
2021/07/12 12:00:17;;;;;;;10.77;3.78;;;;;;;38.11;28.14;100607.69;5050162;28;20095;-67
2021/07/12 12:02:44;;;;;;;10.77;3.90;;;;;;;38.16;28.07;100600.66;5061212;28;20126;-67
2021/07/12 12:05:13;;;;;;;8.88;4.43;;;;;;;38.15;28.16;100598.06;5070057;28;20374;-66
2021/07/12 12:07:45;;;;;;;8.63;3.88;;;;;;;38.24;28.17;100609.03;5069419;28;20140;-66
2021/07/12 12:10:20;;;;;;;7.55;3.72;;;;;;;38.49;28.05;100598.22;5069976;28;20044;-67
2021/07/12 12:12:51;;;;;;;7.68;3.92;;;;;;;38.61;27.74;100610.75;5068857;28;20048;-67
2021/07/12 12:15:23;;;;;;;6.75;4.10;;;;;;;38.65;27.73;100607.53;5068432;28;20059;-67
2021/07/12 12:17:55;;;;;;;8.63;3.78;;;;;;;38.78;27.51;100598.81;5070111;28;20044;-67
2021/07/12 12:20:28;;;;;;;7.63;4.10;;;;;;;38.62;27.36;100606.97;5070086;28;20043;-67
2021/07/12 12:23:09;;;;;;;7.88;3.55;;;;;;;38.63;27.26;100598.53;5068361;28;20127;-67
2021/07/12 12:25:43;;;;;;;12.13;4.25;;;;;;;38.62;27.40;100609.72;5069501;28;20037;-68
2021/07/12 12:28:21;;;;;;;8.65;3.80;;;;;;;38.61;26.94;100608.84;5073937;28;20145;-67
2021/07/12 12:30:51;;;;;;;6.63;3.85;;;;;;;38.67;27.01;100601.81;5070898;28;20599;-68
2021/07/12 12:33:25;;;;;;;7.88;3.92;;;;;;;38.57;27.26;100610.22;5071879;28;20042;-67
2021/07/12 12:35:58;;;;;;;8.32;4.35;;;;;;;38.52;27.21;100587.75;5073919;28;20048;-67
2021/07/12 12:38:26;;;;;;;10.87;4.10;;;;;;;38.47;27.19;100595.59;5073509;28;20048;-66
2021/07/12 12:41:01;;;;;;;6.75;3.47;;;;;;;38.41;27.11;100593.47;5069193;28;20638;-66
2021/07/12 12:43:30;;;;;;;8.43;3.60;;;;;;;38.33;27.52;100590.66;5072987;28;20040;-66
2021/07/12 12:46:04;;;;;;;8.32;3.70;;;;;;;38.32;27.55;100588.94;5072743;28;20044;-65
2021/07/12 12:48:44;;;;;;;10.30;4.30;;;;;;;38.22;27.63;100582.63;5072925;28;20037;-68
2021/07/12 12:51:19;;;;;;;9.02;3.92;;;;;;;38.29;27.51;100589.22;5072519;28;20513;-66
2021/07/12 12:53:58;;;;;;;11.15;3.85;;;;;;;38.01;27.45;100596.69;5073812;28;20119;-67
2021/07/12 12:56:25;;;;;;;8.07;3.88;;;;;;;37.86;27.46;100578.97;5055457;28;20065;-67
2021/07/12 12:59:01;;;;;;;6.32;3.80;;;;;;;37.72;27.73;100576.75;5073414;28;20045;-67
2021/07/12 13:01:39;;;;;;;7.93;3.97;;;;;;;37.61;28.01;100574.22;5071628;28;20094;-66
2021/07/12 13:04:09;;;;;;;8.52;3.60;;;;;;;37.40;28.42;100579.97;5054398;28;20578;-66
2021/07/12 13:06:43;;;;;;;7.82;3.88;;;;;;;37.46;27.91;100587.59;5073606;28;20048;-65
2021/07/12 13:09:13;;;;;;;8.93;4.55;;;;;;;37.50;28.00;100589.03;5072990;28;20036;-66
2021/07/12 13:11:43;;;;;;;10.68;4.18;;;;;;;37.50;27.82;100567.84;5072130;28;20059;-66
2021/07/12 13:14:12;;;;;;;9.52;3.97;;;;;;;37.59;27.61;100573.50;5072635;28;20045;-66
2021/07/12 13:16:44;;;;;;;13.88;4.57;;;;;;;37.69;27.55;100575.16;5072968;28;20082;-66
2021/07/12 13:19:12;;;;;;;10.38;4.72;;;;;;;37.76;27.49;100584.53;5072771;28;20040;-66
2021/07/12 13:21:51;;;;;;;9.65;4.28;;;;;;;37.79;27.41;100572.34;5071266;28;20401;-65
2021/07/12 13:24:45;;;;;;;10.60;4.22;;;;;;;37.85;27.64;100577.22;5071349;28;20111;-66
2021/07/12 13:27:24;;;;;;;15.65;4.95;;;;;;;37.89;27.38;100587.78;4923881;22;20039;-66
2021/07/12 13:29:52;;;;;;;8.73;4.28;;;;;;;37.81;27.45;100578.56;5040707;28;20245;-66
2021/07/12 13:32:21;;;;;;;10.13;4.03;;;;;;;37.74;27.15;100572.81;5049162;28;20064;-67
2021/07/12 13:34:55;;;;;;;9.05;4.15;;;;;;;37.67;27.60;100571.72;5051383;28;20061;-66
2021/07/12 13:37:23;;;;;;;9.75;4.15;;;;;;;37.56;27.77;100577.38;5052277;28;20033;-66
2021/07/12 13:39:52;;;;;;;9.50;3.90;;;;;;;37.74;27.66;100583.84;5051629;28;20701;-66
2021/07/12 13:42:22;;;;;;;8.27;4.38;;;;;;;37.72;27.51;100558.31;5051766;28;20086;-66
2021/07/12 13:44:50;;;;;;;12.77;3.95;;;;;;;37.72;27.79;100579.50;5051901;28;20110;-66
2021/07/12 13:47:18;;;;;;;8.70;4.30;;;;;;;37.69;27.93;100582.56;5052978;28;20047;-66
2021/07/12 13:49:48;;;;;;;7.68;3.72;;;;;;;37.68;28.18;100576.16;5051366;28;20041;-67
2021/07/12 13:52:17;;;;;;;6.88;4.40;;;;;;;37.79;28.61;100569.59;5037862;28;20570;-67
2021/07/12 13:54:54;;;;;;;7.28;4.10;;;;;;;37.82;28.62;100572.88;5050716;28;20103;-66
2021/07/12 13:57:24;;;;;;;8.23;4.05;;;;;;;37.75;28.97;100574.53;5052163;28;20033;-68
2021/07/12 13:59:52;;;;;;;8.15;4.28;;;;;;;37.81;28.93;100575.81;5052233;28;20048;-67
2021/07/12 14:02:20;;;;;;;7.25;3.80;;;;;;;37.74;29.10;100564.56;5050793;28;20516;-68
2021/07/12 14:04:50;;;;;;;6.38;3.60;;;;;;;37.53;28.92;100563.06;5050631;28;20051;-67
2021/07/12 14:07:19;;;;;;;12.93;4.88;;;;;;;37.32;29.13;100561.44;5051792;28;20075;-68
2021/07/12 14:09:47;;;;;;;9.77;4.85;;;;;;;37.28;29.52;100559.16;5050329;28;20452;-66
2021/07/12 14:12:17;;;;;;;9.82;4.88;;;;;;;37.26;29.23;100562.03;5052189;28;20128;-68
2021/07/12 14:14:46;;;;;;;9.75;4.30;;;;;;;37.03;29.59;100545.00;5062764;28;20044;-67
2021/07/12 14:17:14;;;;;;;8.43;4.40;;;;;;;36.86;29.70;100542.19;5052608;28;20040;-67
2021/07/12 14:19:42;;;;;;;9.10;4.60;;;;;;;36.70;29.91;100549.19;5058204;28;20037;-67
2021/07/12 14:22:13;;;;;;;9.98;4.10;;;;;;;36.91;29.78;100545.34;5072212;28;20069;-67
2021/07/12 14:24:41;;;;;;;11.45;4.50;;;;;;;36.93;29.44;100546.94;5056548;28;20112;-67
2021/07/12 14:27:10;;;;;;;14.02;4.40;;;;;;;36.82;29.58;100538.00;5045601;28;20033;-67
2021/07/12 14:29:39;;;;;;;11.07;4.68;;;;;;;36.82;29.53;100535.25;5050958;28;20033;-67
2021/07/12 14:32:08;;;;;;;7.80;4.32;;;;;;;36.76;29.17;100533.94;5052090;28;20061;-67
2021/07/12 14:34:36;;;;;;;8.77;4.25;;;;;;;36.71;29.17;100530.78;5052940;28;20072;-68
2021/07/12 14:37:05;;;;;;;9.70;4.40;;;;;;;36.55;29.30;100544.28;5050547;28;20045;-67
2021/07/12 14:39:34;;;;;;;8.20;4.15;;;;;;;36.46;29.49;100543.28;5050054;28;20060;-67
2021/07/12 14:42:07;;;;;;;14.25;3.65;;;;;;;36.40;29.69;100541.13;5050426;28;20037;-67
2021/07/12 14:44:36;;;;;;;8.95;4.05;;;;;;;36.42;29.76;100536.34;5050435;28;20128;-67
2021/07/12 14:47:05;;;;;;;10.25;4.30;;;;;;;36.33;29.92;100540.84;5048728;28;20124;-67
2021/07/12 14:49:34;;;;;;;9.70;4.72;;;;;;;36.22;30.35;100560.25;5048872;28;20387;-68
2021/07/12 14:52:04;;;;;;;9.00;4.78;;;;;;;36.31;30.50;100553.00;5033858;28;20095;-67
2021/07/12 14:54:32;;;;;;;10.40;4.28;;;;;;;36.39;30.54;100538.50;5036218;28;20122;-67
2021/07/12 14:57:01;;;;;;;9.35;4.20;;;;;;;36.39;30.33;100546.75;5051234;28;20052;-66
2021/07/12 14:59:28;;;;;;;8.52;4.50;;;;;;;36.06;30.66;100546.19;5039531;28;20045;-66
2021/07/12 15:01:59;;;;;;;14.43;4.57;;;;;;;36.03;30.76;100556.63;5047575;28;20197;-67
2021/07/12 15:04:28;;;;;;;10.30;4.53;;;;;;;36.02;30.86;100564.00;5049997;28;20037;-67
2021/07/12 15:06:59;;;;;;;7.95;4.40;;;;;;;35.85;31.02;100556.44;5049927;28;20389;-69
2021/07/12 15:09:27;;;;;;;11.23;4.00;;;;;;;35.78;30.99;100547.03;5051353;28;20052;-67
2021/07/12 15:11:57;;;;;;;9.52;4.53;;;;;;;35.68;31.41;100562.63;5048522;28;20393;-67
2021/07/12 15:14:30;;;;;;;11.07;4.35;;;;;;;35.43;31.58;100559.41;5048199;28;20048;-68
2021/07/12 15:16:59;;;;;;;8.75;4.97;;;;;;;35.55;31.59;100546.41;5047893;28;20047;-66
2021/07/12 15:19:27;;;;;;;9.30;4.25;;;;;;;35.54;31.72;100553.78;5050509;28;20045;-67
2021/07/12 15:22:03;;;;;;;13.80;4.40;;;;;;;35.37;32.36;100559.09;5050449;28;20048;-67
2021/07/12 15:24:33;;;;;;;10.77;4.38;;;;;;;35.12;32.86;100557.66;5049582;28;20124;-67
2021/07/12 15:27:05;;;;;;;9.07;4.35;;;;;;;34.77;33.83;100560.81;5051242;28;20037;-67
2021/07/12 15:29:34;;;;;;;11.10;4.43;;;;;;;34.75;33.68;100555.47;5049649;28;20099;-66
2021/07/12 15:32:04;;;;;;;9.40;4.60;;;;;;;34.64;34.30;100565.63;5048146;28;20033;-67
2021/07/12 15:34:33;;;;;;;9.65;4.70;;;;;;;34.50;34.24;100564.09;5049272;28;20045;-67
2021/07/12 15:37:06;;;;;;;10.50;4.50;;;;;;;34.44;34.53;100555.53;5049694;28;20029;-67
2021/07/12 15:39:40;;;;;;;12.98;5.00;;;;;;;34.33;34.17;100553.75;5050006;28;20041;-67
2021/07/12 15:42:10;;;;;;;9.40;3.90;;;;;;;34.29;34.06;100547.63;5049130;28;20043;-67
2021/07/12 15:44:41;;;;;;;12.07;4.70;;;;;;;33.97;34.02;100544.91;5050212;28;20041;-67
2021/07/12 15:47:11;;;;;;;14.40;5.03;;;;;;;33.70;34.63;100544.47;5048655;28;20441;-67
2021/07/12 15:49:48;;;;;;;14.57;4.35;;;;;;;33.57;34.62;100546.50;5048988;28;20601;-67
2021/07/12 15:52:17;;;;;;;9.15;4.72;;;;;;;33.43;35.14;100549.53;5050103;28;20044;-67
2021/07/12 15:54:48;;;;;;;8.20;4.43;;;;;;;33.29;34.91;100555.25;5050227;28;20047;-67
2021/07/12 15:57:16;;;;;;;10.52;4.47;;;;;;;33.14;35.09;100550.03;5049436;28;20047;-67
2021/07/12 15:59:45;;;;;;;13.23;5.72;;;;;;;33.08;35.09;100553.25;5050138;28;20417;-67
2021/07/12 16:02:14;;;;;;;10.70;4.63;;;;;;;33.08;35.09;100550.50;5049324;28;20041;-67
2021/07/12 16:04:41;;;;;;;12.20;4.30;;;;;;;32.97;35.12;100555.13;5050109;28;20060;-67
2021/07/12 16:07:09;;;;;;;11.18;4.82;;;;;;;32.71;35.50;100559.97;5049547;28;20033;-67
2021/07/12 16:09:36;;;;;;;7.60;4.30;;;;;;;32.69;35.19;100551.88;5048903;28;20061;-67
2021/07/12 16:12:05;;;;;;;14.20;5.05;;;;;;;32.56;35.15;100547.50;5049783;28;20053;-67
2021/07/12 16:14:33;;;;;;;13.30;4.63;;;;;;;32.51;35.60;100547.84;5050347;28;20104;-67
2021/07/12 16:17:03;;;;;;;8.75;4.18;;;;;;;32.49;35.13;100548.97;5048638;28;20037;-66
2021/07/12 16:19:32;;;;;;;7.47;4.18;;;;;;;32.48;35.15;100548.09;5048949;28;20053;-65
2021/07/12 16:22:02;;;;;;;17.15;4.53;;;;;;;32.30;35.30;100539.47;5048346;28;20045;-66
2021/07/12 16:24:34;;;;;;;10.65;4.25;;;;;;;32.37;35.66;100550.78;5045437;28;20089;-64
2021/07/12 16:27:05;;;;;;;11.15;5.10;;;;;;;32.36;35.29;100540.88;5058658;28;20048;-64
2021/07/12 16:29:33;;;;;;;10.60;4.45;;;;;;;32.31;36.02;100543.94;5056318;28;20041;-65
2021/07/12 16:32:02;;;;;;;11.90;4.50;;;;;;;32.23;36.09;100545.56;5045983;28;20545;-66
2021/07/12 16:34:29;;;;;;;10.18;4.50;;;;;;;32.00;36.68;100548.16;5061791;28;20481;-65
2021/07/12 16:36:57;;;;;;;10.88;5.00;;;;;;;31.90;37.03;100540.81;5061768;28;20446;-65
2021/07/12 16:39:24;;;;;;;8.27;4.70;;;;;;;31.84;37.15;100543.97;5054058;28;20127;-66
2021/07/12 16:41:53;;;;;;;9.95;5.05;;;;;;;31.85;36.55;100549.34;5051725;28;20044;-65
2021/07/12 16:44:22;;;;;;;12.25;5.03;;;;;;;31.81;37.00;100557.91;5054770;28;20037;-65
2021/07/12 16:46:52;;;;;;;12.73;5.00;;;;;;;31.73;37.03;100552.13;5056475;28;20040;-65
2021/07/12 16:49:23;;;;;;;14.38;4.97;;;;;;;31.70;36.89;100560.56;5059758;28;20032;-65
2021/07/12 16:51:50;;;;;;;11.38;4.75;;;;;;;31.69;36.96;100554.25;5049873;28;20064;-66
2021/07/12 16:54:21;;;;;;;11.93;4.65;;;;;;;31.69;37.02;100553.38;5051849;28;20045;-65
2021/07/12 16:56:49;;;;;;;10.32;4.63;;;;;;;31.52;37.18;100560.03;5055301;28;20033;-66
2021/07/12 16:59:16;;;;;;;11.43;4.88;;;;;;;31.38;36.91;100546.53;5049011;28;20050;-68
2021/07/12 17:01:45;;;;;;;11.00;4.40;;;;;;;31.40;36.84;100558.22;5053474;28;20432;-68
2021/07/12 17:04:13;;;;;;;11.65;4.72;;;;;;;31.30;36.60;100555.34;5030329;28;20083;-68
2021/07/12 17:06:43;;;;;;;13.52;5.18;;;;;;;31.30;36.81;100552.59;5058048;28;20090;-66
2021/07/12 17:09:15;;;;;;;10.10;4.35;;;;;;;31.33;36.97;100556.94;5048117;28;20112;-65
2021/07/12 17:11:50;;;;;;;11.75;4.88;;;;;;;31.30;37.02;100551.72;5035029;28;20132;-65
2021/07/12 17:14:19;;;;;;;15.55;5.00;;;;;;;31.22;37.54;100555.91;5054198;28;20535;-65
2021/07/12 17:16:57;;;;;;;8.55;4.50;;;;;;;31.23;37.69;100552.19;5050066;28;20124;-66
2021/07/12 17:19:27;;;;;;;11.63;4.90;;;;;;;31.04;37.70;100551.75;5055380;28;20053;-65
2021/07/12 17:21:59;;;;;;;13.32;5.25;;;;;;;31.01;37.97;100553.81;5060313;28;20119;-65
2021/07/12 17:24:26;;;;;;;8.95;5.05;;;;;;;30.91;37.84;100555.47;5053311;28;20179;-68
2021/07/12 17:26:57;;;;;;;13.65;4.70;;;;;;;30.64;38.15;100548.31;5052764;28;20131;-66
2021/07/12 17:29:27;;;;;;;11.13;5.03;;;;;;;30.57;38.50;100547.00;5046221;28;20056;-66
2021/07/12 17:31:59;;;;;;;10.63;5.55;;;;;;;30.67;38.45;100563.53;5040352;28;20095;-68
2021/07/12 17:34:27;;;;;;;13.15;5.65;;;;;;;30.56;38.69;100558.00;5048444;28;20049;-69
2021/07/12 17:36:59;;;;;;;12.20;5.50;;;;;;;30.55;38.82;100558.97;5043324;28;20037;-68
2021/07/12 17:39:28;;;;;;;12.68;5.22;;;;;;;30.45;38.93;100553.28;5043637;28;20423;-68
2021/07/12 17:42:01;;;;;;;10.95;5.70;;;;;;;30.39;39.21;100556.44;5042319;28;20057;-65
2021/07/12 17:44:28;;;;;;;10.73;5.10;;;;;;;30.35;39.52;100554.88;5035099;28;20040;-65
2021/07/12 17:46:56;;;;;;;13.27;5.78;;;;;;;30.28;39.58;100561.75;5036804;28;20497;-66
2021/07/12 17:49:24;;;;;;;12.00;5.78;;;;;;;30.29;40.09;100552.59;5032154;28;20498;-66
2021/07/12 17:51:53;;;;;;;11.38;5.13;;;;;;;30.16;40.21;100560.75;5046441;28;20048;-67
2021/07/12 17:54:23;;;;;;;11.57;4.82;;;;;;;30.18;40.61;100564.25;5040461;28;20042;-67
2021/07/12 17:56:51;;;;;;;10.07;5.07;;;;;;;30.16;40.90;100568.03;5033687;28;20121;-67
2021/07/12 17:59:19;;;;;;;11.73;5.03;;;;;;;30.03;41.13;100573.47;5042894;28;20048;-66
2021/07/12 18:01:48;;;;;;;13.73;5.50;;;;;;;30.00;41.71;100568.22;5036717;28;20120;-66
2021/07/12 18:04:16;;;;;;;14.38;5.47;;;;;;;29.97;41.91;100573.88;5035319;28;20049;-66
2021/07/12 18:06:44;;;;;;;13.35;5.43;;;;;;;29.93;42.07;100567.75;5030419;28;20034;-66
2021/07/12 18:09:12;;;;;;;12.00;5.40;;;;;;;29.88;42.19;100564.44;5014884;28;20042;-66
2021/07/12 18:11:44;;;;;;;10.15;5.07;;;;;;;29.84;42.03;100562.91;5042543;28;20558;-67
2021/07/12 18:14:14;;;;;;;10.73;5.20;;;;;;;29.84;42.29;100572.94;5031895;28;20046;-67
2021/07/12 18:16:41;;;;;;;12.77;6.20;;;;;;;29.72;42.49;100566.47;5038931;28;20041;-68
2021/07/12 18:19:09;;;;;;;12.68;6.55;;;;;;;29.69;42.97;100569.38;5039226;28;20144;-67
2021/07/12 18:21:38;;;;;;;11.57;6.43;;;;;;;29.71;43.33;100581.91;5050400;28;20037;-67
2021/07/12 18:24:06;;;;;;;16.17;6.95;;;;;;;29.74;43.76;100572.66;5037379;28;20792;-67
2021/07/12 18:26:33;;;;;;;12.13;7.13;;;;;;;29.60;44.43;100580.91;5035317;28;20112;-67
2021/07/12 18:29:02;;;;;;;17.33;7.82;;;;;;;29.55;44.79;100588.47;5067049;28;20473;-67
2021/07/12 18:31:30;;;;;;;15.15;5.70;;;;;;;29.49;45.21;100587.03;5070975;28;20040;-67
2021/07/12 18:33:57;;;;;;;18.30;7.65;;;;;;;29.50;45.46;100582.47;5052785;28;20037;-67
2021/07/12 18:36:25;;;;;;;12.98;5.13;;;;;;;29.36;45.85;100596.97;5054396;28;20097;-66
2021/07/12 18:38:53;;;;;;;12.75;5.45;;;;;;;29.35;45.90;100589.78;5056800;28;20136;-68
2021/07/12 18:41:23;;;;;;;17.23;5.55;;;;;;;29.36;46.25;100590.66;5066732;28;20093;-67
2021/07/12 18:43:51;;;;;;;11.27;5.68;;;;;;;29.31;46.56;100597.25;5070052;28;20048;-68
2021/07/12 18:46:20;;;;;;;11.57;5.97;;;;;;;29.35;46.85;100614.25;5063194;28;20044;-67
2021/07/12 18:48:50;;;;;;;12.27;5.55;;;;;;;29.31;46.67;100613.56;5057865;28;20045;-67
2021/07/12 18:51:18;;;;;;;14.93;5.75;;;;;;;29.36;47.04;100606.97;5051621;28;20045;-67
2021/07/12 18:53:46;;;;;;;9.95;5.55;;;;;;;29.34;47.07;100612.53;5063135;28;20068;-67
2021/07/12 18:56:13;;;;;;;13.35;4.95;;;;;;;29.26;47.26;100607.53;5057231;28;20048;-67
2021/07/12 18:58:41;;;;;;;13.68;5.15;;;;;;;29.17;47.60;100610.84;5047311;28;20052;-68
2021/07/12 19:01:10;;;;;;;9.88;5.10;;;;;;;29.09;47.54;100612.28;5064441;28;20046;-67
2021/07/12 19:03:40;;;;;;;10.98;5.57;;;;;;;29.05;47.56;100614.34;5044163;28;20099;-68
2021/07/12 19:06:07;;;;;;;14.18;5.88;;;;;;;29.07;47.58;100620.56;5068813;28;20106;-67
2021/07/12 19:08:37;;;;;;;12.82;6.00;;;;;;;29.06;47.36;100621.53;5054676;28;20128;-68
2021/07/12 19:11:06;;;;;;;14.90;5.43;;;;;;;29.03;47.90;100616.28;5062543;28;20123;-68
2021/07/12 19:13:34;;;;;;;12.43;6.22;;;;;;;28.92;47.48;100622.41;5057052;28;20049;-67
2021/07/12 19:16:02;;;;;;;11.27;5.40;;;;;;;28.91;47.30;100615.22;5036849;28;20044;-67
2021/07/12 19:18:30;;;;;;;8.57;5.15;;;;;;;28.94;47.57;100616.88;5054403;28;20121;-67
2021/07/12 19:20:58;;;;;;;11.55;5.45;;;;;;;28.90;46.92;100613.47;5063517;28;20060;-67
2021/07/12 19:23:27;;;;;;;11.00;5.13;;;;;;;28.92;47.16;100627.84;5055737;28;20126;-66
2021/07/12 19:26:01;;;;;;;11.15;4.90;;;;;;;28.98;46.81;100626.59;5059266;28;20090;-66
2021/07/12 19:28:31;;;;;;;12.55;5.35;;;;;;;28.93;47.03;100645.03;5069488;28;20046;-67
2021/07/12 19:31:02;;;;;;;10.65;5.47;;;;;;;28.84;46.92;100635.59;5058949;28;20123;-67
2021/07/12 19:33:30;;;;;;;12.02;5.63;;;;;;;28.81;46.91;100634.94;5048883;28;20451;-66
2021/07/12 19:36:02;;;;;;;13.18;5.70;;;;;;;28.77;47.30;100642.38;5048852;28;20044;-67
2021/07/12 19:38:31;;;;;;;11.13;5.45;;;;;;;28.72;47.33;100647.19;5047225;28;20051;-67
2021/07/12 19:41:02;;;;;;;11.48;5.30;;;;;;;28.70;47.33;100660.00;5033892;28;20113;-67
2021/07/12 19:43:30;;;;;;;10.32;5.00;;;;;;;28.68;46.82;100655.66;5048154;28;20509;-68
2021/07/12 19:45:58;;;;;;;11.32;5.93;;;;;;;28.60;47.25;100655.22;5048916;28;20455;-68
2021/07/12 19:48:26;;;;;;;19.80;7.88;;;;;;;28.63;47.18;100657.75;5045101;28;20045;-68
2021/07/12 19:50:58;;;;;;;12.52;5.25;;;;;;;28.62;47.07;100656.88;5046202;28;20052;-68
2021/07/12 19:53:29;;;;;;;18.17;6.22;;;;;;;28.65;47.48;100648.53;5046339;28;20052;-67
2021/07/12 19:56:04;;;;;;;11.25;5.78;;;;;;;28.64;46.95;100646.78;5047480;28;20054;-68
2021/07/12 19:58:36;;;;;;;14.65;5.85;;;;;;;28.58;47.60;100657.16;5050072;28;20049;-67
2021/07/12 20:01:04;;;;;;;11.18;5.43;;;;;;;28.48;47.53;100649.59;5049615;28;20479;-67
2021/07/12 20:03:34;;;;;;;8.75;4.85;;;;;;;28.53;47.81;100649.28;5049752;28;20055;-67
2021/07/12 20:06:01;;;;;;;8.57;4.93;;;;;;;28.58;47.34;100652.59;5040796;28;20037;-68
2021/07/12 20:08:31;;;;;;;10.23;5.25;;;;;;;28.55;47.60;100645.50;5043239;28;20124;-67
2021/07/12 20:11:05;;;;;;;12.43;6.72;;;;;;;28.49;47.79;100662.16;5048027;28;20057;-67
2021/07/12 20:13:37;;;;;;;14.45;5.70;;;;;;;28.44;47.60;100656.16;5048440;28;20052;-67
2021/07/12 20:16:11;;;;;;;13.07;5.03;;;;;;;28.40;47.98;100651.00;5049295;28;20099;-67
2021/07/12 20:18:40;;;;;;;16.10;5.68;;;;;;;28.41;47.52;100650.91;5031264;28;20094;-67
2021/07/12 20:21:08;;;;;;;18.80;9.60;;;;;;;28.30;47.82;100650.66;5047195;28;20045;-68
2021/07/12 20:23:37;;;;;;;12.15;5.72;;;;;;;28.30;47.70;100650.66;5046542;28;20473;-67
2021/07/12 20:26:09;;;;;;;10.10;5.20;;;;;;;28.33;48.09;100647.78;5048176;28;20132;-67
2021/07/12 20:28:37;;;;;;;13.73;5.55;;;;;;;28.37;47.54;100648.44;5038444;28;20044;-68
2021/07/12 20:31:08;;;;;;;15.98;5.88;;;;;;;28.32;47.89;100646.03;5042528;28;20498;-68
2021/07/12 20:33:35;;;;;;;13.98;5.38;;;;;;;28.33;47.65;100650.50;5038358;28;20163;-67
2021/07/12 20:36:04;;;;;;;11.10;5.30;;;;;;;28.33;47.90;100647.78;5046681;28;20084;-68
2021/07/12 20:38:34;;;;;;;11.82;4.90;;;;;;;28.32;47.86;100646.03;5036005;28;20525;-67
2021/07/12 20:41:04;;;;;;;9.25;5.22;;;;;;;28.29;47.76;100646.19;5031096;28;20040;-67
2021/07/12 20:43:34;;;;;;;13.82;5.13;;;;;;;28.20;48.00;100645.88;5038608;28;20041;-68
2021/07/12 20:46:02;;;;;;;12.38;5.38;;;;;;;28.18;48.10;100650.50;5030175;28;20132;-67
2021/07/12 20:48:30;;;;;;;13.15;4.82;;;;;;;28.14;48.50;100644.41;5033424;28;20124;-67
2021/07/12 20:51:00;;;;;;;11.07;5.00;;;;;;;28.17;48.17;100644.22;5037544;28;20534;-68
2021/07/12 20:53:28;;;;;;;9.15;5.10;;;;;;;28.18;48.14;100647.81;5041433;28;20121;-68
2021/07/12 20:55:57;;;;;;;14.35;4.95;;;;;;;28.17;47.98;100649.63;5041612;28;20041;-68
2021/07/12 20:58:27;;;;;;;9.30;4.88;;;;;;;28.12;48.07;100647.16;5032362;28;20112;-67
2021/07/12 21:00:56;;;;;;;12.05;5.25;;;;;;;28.07;48.28;100640.25;5035281;28;20051;-68
2021/07/12 21:03:25;;;;;;;9.77;5.13;;;;;;;27.97;48.21;100648.06;5033261;28;20045;-68
2021/07/12 21:05:54;;;;;;;12.00;6.03;;;;;;;27.86;48.99;100646.94;5037728;28;20448;-68
2021/07/12 21:08:22;;;;;;;13.00;5.65;;;;;;;27.62;48.94;100649.22;5053334;28;20044;-68
2021/07/12 21:10:49;;;;;;;11.60;5.47;;;;;;;27.72;49.07;100654.03;5051282;28;20600;-68
2021/07/12 21:13:17;;;;;;;12.30;5.22;;;;;;;27.75;48.41;100653.88;5052120;28;20501;-68
2021/07/12 21:15:47;;;;;;;10.98;5.07;;;;;;;27.71;49.05;100649.56;5053480;28;20047;-68
2021/07/12 21:18:16;;;;;;;8.77;5.05;;;;;;;27.70;49.20;100649.66;5034874;28;20057;-68
2021/07/12 21:20:44;;;;;;;10.00;5.00;;;;;;;27.73;48.84;100657.63;5033064;28;20113;-68
2021/07/12 21:23:12;;;;;;;9.98;5.60;;;;;;;27.77;48.28;100651.94;5033763;28;20084;-67
2021/07/12 21:25:39;;;;;;;12.45;5.30;;;;;;;27.83;48.65;100652.56;5043493;28;20036;-68
2021/07/12 21:28:07;;;;;;;10.13;5.82;;;;;;;27.64;49.13;100650.88;5046496;28;20033;-68
2021/07/12 21:30:37;;;;;;;11.43;5.10;;;;;;;27.62;48.95;100646.53;5053004;28;20119;-68
2021/07/12 21:33:08;;;;;;;9.63;4.78;;;;;;;27.68;48.61;100646.16;5052747;28;20125;-68
2021/07/12 21:35:37;;;;;;;13.85;6.50;;;;;;;27.67;48.29;100645.28;5051971;28;20041;-68
2021/07/12 21:38:18;;;;;;;10.93;5.32;;;;;;;27.63;48.31;100651.88;5051408;28;20493;-68
2021/07/12 21:40:48;;;;;;;7.82;5.13;;;;;;;27.62;48.29;100638.38;5050953;28;20037;-68
2021/07/12 21:43:15;;;;;;;9.75;5.10;;;;;;;27.57;48.30;100632.34;5052920;28;20037;-68
2021/07/12 21:45:43;;;;;;;13.50;5.32;;;;;;;27.54;48.81;100638.81;5050734;28;20068;-68
2021/07/12 21:48:13;;;;;;;13.95;5.47;;;;;;;27.56;48.59;100633.31;5052632;28;20441;-68
2021/07/12 21:50:44;;;;;;;8.70;5.07;;;;;;;27.56;48.93;100633.31;5052178;28;20033;-67
2021/07/12 21:53:11;;;;;;;8.23;4.90;;;;;;;27.50;48.49;100631.78;5052029;28;20045;-68
2021/07/12 21:55:39;;;;;;;13.38;4.97;;;;;;;27.42;49.14;100635.88;5051123;28;20140;-68
2021/07/12 21:58:08;;;;;;;9.75;5.32;;;;;;;27.42;48.91;100625.03;5051255;28;20065;-68
2021/07/12 22:00:35;;;;;;;8.63;5.18;;;;;;;27.43;48.42;100629.50;5050944;28;20044;-68
2021/07/12 22:03:03;;;;;;;11.02;5.72;;;;;;;27.36;48.64;100631.69;5051080;28;20049;-67
2021/07/12 22:05:32;;;;;;;11.40;5.38;;;;;;;27.37;49.04;100631.56;5050171;28;20489;-68
2021/07/12 22:08:02;;;;;;;12.55;5.70;;;;;;;27.42;48.55;100633.16;5050648;28;20124;-67
2021/07/12 22:10:35;;;;;;;11.65;5.72;;;;;;;27.45;48.06;100636.56;5050787;28;20037;-68
2021/07/12 22:13:03;;;;;;;8.43;5.47;;;;;;;27.36;48.29;100637.09;5050037;28;20095;-68
2021/07/12 22:15:31;;;;;;;16.45;5.68;;;;;;;27.23;49.20;100631.50;5050352;28;20519;-67
2021/07/12 22:18:00;;;;;;;13.10;4.95;;;;;;;27.23;48.63;100627.91;5051203;28;20033;-68
2021/07/12 22:20:31;;;;;;;9.80;5.60;;;;;;;27.24;48.65;100624.25;5025101;28;20051;-69
2021/07/12 22:23:05;;;;;;;13.77;5.50;;;;;;;27.25;49.09;100626.84;5051051;28;20560;-68
2021/07/12 22:25:33;;;;;;;9.40;5.25;;;;;;;27.22;48.67;100618.91;5050374;28;20498;-68
2021/07/12 22:28:02;;;;;;;9.23;5.32;;;;;;;27.17;49.08;100623.72;5033154;28;20037;-68
2021/07/12 22:30:32;;;;;;;13.48;5.93;;;;;;;27.15;48.96;100624.72;5050997;28;20121;-67